sensor_id;sensor_type;location;lat;lon;timestamp;P1;durP1;ratioP1;P2;durP2;ratioP2
12846;SDS011;6492;48.128;8.320;2024-01-30T00:02:47;1.13;;;1.03;;
12846;SDS011;6492;48.128;8.320;2024-01-30T00:06:50;1.77;;;1.50;;
12846;SDS011;6492;48.128;8.320;2024-01-30T00:10:52;2.43;;;1.43;;
12846;SDS011;6492;48.128;8.320;2024-01-30T00:14:56;1.40;;;1.30;;
12846;SDS011;6492;48.128;8.320;2024-01-30T00:19:04;3.00;;;1.30;;
12846;SDS011;6492;48.128;8.320;2024-01-30T00:23:05;2.30;;;1.20;;
12846;SDS011;6492;48.128;8.320;2024-01-30T00:27:07;0.90;;;0.90;;
12846;SDS011;6492;48.128;8.320;2024-01-30T00:31:11;1.20;;;1.10;;
12846;SDS011;6492;48.128;8.320;2024-01-30T00:35:13;2.63;;;1.63;;
12846;SDS011;6492;48.128;8.320;2024-01-30T00:39:14;1.60;;;1.43;;
12846;SDS011;6492;48.128;8.320;2024-01-30T00:43:16;3.30;;;2.10;;
12846;SDS011;6492;48.128;8.320;2024-01-30T00:47:19;2.13;;;1.43;;
12846;SDS011;6492;48.128;8.320;2024-01-30T00:51:21;1.40;;;1.20;;
12846;SDS011;6492;48.128;8.320;2024-01-30T00:55:23;1.70;;;1.23;;
12846;SDS011;6492;48.128;8.320;2024-01-30T00:59:24;1.73;;;1.33;;
12846;SDS011;6492;48.128;8.320;2024-01-30T01:03:28;1.27;;;0.90;;
12846;SDS011;6492;48.128;8.320;2024-01-30T01:07:29;1.57;;;1.27;;
12846;SDS011;6492;48.128;8.320;2024-01-30T01:11:31;2.53;;;1.50;;
12846;SDS011;6492;48.128;8.320;2024-01-30T01:15:33;1.13;;;1.10;;
12846;SDS011;6492;48.128;8.320;2024-01-30T01:19:37;1.77;;;1.10;;
12846;SDS011;6492;48.128;8.320;2024-01-30T01:23:39;1.37;;;1.27;;
12846;SDS011;6492;48.128;8.320;2024-01-30T01:27:41;1.07;;;1.00;;
12846;SDS011;6492;48.128;8.320;2024-01-30T01:31:44;1.43;;;1.13;;
12846;SDS011;6492;48.128;8.320;2024-01-30T01:35:47;1.10;;;1.00;;
12846;SDS011;6492;48.128;8.320;2024-01-30T01:39:53;1.40;;;1.10;;
12846;SDS011;6492;48.128;8.320;2024-01-30T01:43:55;2.13;;;1.40;;
12846;SDS011;6492;48.128;8.320;2024-01-30T01:47:56;1.20;;;1.10;;
12846;SDS011;6492;48.128;8.320;2024-01-30T01:52:00;1.20;;;1.10;;
12846;SDS011;6492;48.128;8.320;2024-01-30T01:56:02;2.27;;;1.30;;
12846;SDS011;6492;48.128;8.320;2024-01-30T02:00:04;1.17;;;1.07;;
12846;SDS011;6492;48.128;8.320;2024-01-30T02:04:07;1.50;;;1.33;;
12846;SDS011;6492;48.128;8.320;2024-01-30T02:08:10;1.53;;;1.10;;
12846;SDS011;6492;48.128;8.320;2024-01-30T02:12:12;1.33;;;1.10;;
12846;SDS011;6492;48.128;8.320;2024-01-30T02:16:14;1.63;;;1.33;;
12846;SDS011;6492;48.128;8.320;2024-01-30T02:20:17;2.23;;;1.20;;
12846;SDS011;6492;48.128;8.320;2024-01-30T02:24:20;1.67;;;1.10;;
12846;SDS011;6492;48.128;8.320;2024-01-30T02:28:22;1.23;;;1.13;;
12846;SDS011;6492;48.128;8.320;2024-01-30T02:32:24;1.10;;;1.00;;
12846;SDS011;6492;48.128;8.320;2024-01-30T02:36:25;0.97;;;0.90;;
12846;SDS011;6492;48.128;8.320;2024-01-30T02:40:28;1.27;;;1.17;;
12846;SDS011;6492;48.128;8.320;2024-01-30T02:44:30;1.87;;;1.10;;
12846;SDS011;6492;48.128;8.320;2024-01-30T02:48:32;1.63;;;1.13;;
12846;SDS011;6492;48.128;8.320;2024-01-30T02:52:34;1.50;;;1.30;;
12846;SDS011;6492;48.128;8.320;2024-01-30T02:56:37;1.60;;;1.30;;
12846;SDS011;6492;48.128;8.320;2024-01-30T03:00:39;2.33;;;1.50;;
12846;SDS011;6492;48.128;8.320;2024-01-30T03:04:41;2.17;;;1.23;;
12846;SDS011;6492;48.128;8.320;2024-01-30T03:08:43;2.87;;;1.60;;
12846;SDS011;6492;48.128;8.320;2024-01-30T03:12:46;1.67;;;1.43;;
12846;SDS011;6492;48.128;8.320;2024-01-30T03:16:48;2.10;;;1.43;;
12846;SDS011;6492;48.128;8.320;2024-01-30T03:20:49;1.87;;;1.40;;
12846;SDS011;6492;48.128;8.320;2024-01-30T03:24:51;1.87;;;1.57;;
12846;SDS011;6492;48.128;8.320;2024-01-30T03:28:54;1.70;;;1.60;;
12846;SDS011;6492;48.128;8.320;2024-01-30T03:32:56;1.63;;;1.40;;
12846;SDS011;6492;48.128;8.320;2024-01-30T03:36:58;1.83;;;1.50;;
12846;SDS011;6492;48.128;8.320;2024-01-30T03:41:00;1.50;;;1.40;;
12846;SDS011;6492;48.128;8.320;2024-01-30T03:45:03;2.33;;;1.60;;
12846;SDS011;6492;48.128;8.320;2024-01-30T03:49:06;2.20;;;1.80;;
12846;SDS011;6492;48.128;8.320;2024-01-30T03:53:07;1.60;;;1.47;;
12846;SDS011;6492;48.128;8.320;2024-01-30T03:57:09;1.60;;;1.50;;
12846;SDS011;6492;48.128;8.320;2024-01-30T04:01:14;1.60;;;1.40;;
12846;SDS011;6492;48.128;8.320;2024-01-30T04:05:16;1.50;;;1.40;;
12846;SDS011;6492;48.128;8.320;2024-01-30T04:09:23;3.17;;;1.40;;
12846;SDS011;6492;48.128;8.320;2024-01-30T04:13:26;2.10;;;1.50;;
12846;SDS011;6492;48.128;8.320;2024-01-30T04:17:29;1.40;;;1.30;;
12846;SDS011;6492;48.128;8.320;2024-01-30T04:21:31;1.70;;;1.60;;
12846;SDS011;6492;48.128;8.320;2024-01-30T04:25:33;2.10;;;1.90;;
12846;SDS011;6492;48.128;8.320;2024-01-30T04:29:35;1.67;;;1.37;;
12846;SDS011;6492;48.128;8.320;2024-01-30T04:33:38;1.97;;;1.60;;
12846;SDS011;6492;48.128;8.320;2024-01-30T04:37:39;2.03;;;1.37;;
12846;SDS011;6492;48.128;8.320;2024-01-30T04:41:41;1.77;;;1.60;;
12846;SDS011;6492;48.128;8.320;2024-01-30T04:45:43;1.40;;;1.30;;
12846;SDS011;6492;48.128;8.320;2024-01-30T04:49:46;1.93;;;1.73;;
12846;SDS011;6492;48.128;8.320;2024-01-30T04:53:48;1.40;;;1.20;;
12846;SDS011;6492;48.128;8.320;2024-01-30T04:57:50;1.77;;;1.53;;
12846;SDS011;6492;48.128;8.320;2024-01-30T05:01:51;2.57;;;1.43;;
12846;SDS011;6492;48.128;8.320;2024-01-30T05:05:54;2.30;;;1.70;;
12846;SDS011;6492;48.128;8.320;2024-01-30T05:09:56;1.30;;;1.20;;
12846;SDS011;6492;48.128;8.320;2024-01-30T05:13:58;1.30;;;1.20;;
12846;SDS011;6492;48.128;8.320;2024-01-30T05:18:00;1.90;;;1.70;;
12846;SDS011;6492;48.128;8.320;2024-01-30T05:22:14;1.70;;;1.43;;
12846;SDS011;6492;48.128;8.320;2024-01-30T05:26:18;1.50;;;1.30;;
12846;SDS011;6492;48.128;8.320;2024-01-30T05:30:19;1.27;;;1.10;;
12846;SDS011;6492;48.128;8.320;2024-01-30T05:34:22;2.63;;;1.23;;
12846;SDS011;6492;48.128;8.320;2024-01-30T05:38:25;1.43;;;1.33;;
12846;SDS011;6492;48.128;8.320;2024-01-30T05:42:27;1.57;;;1.33;;
12846;SDS011;6492;48.128;8.320;2024-01-30T05:46:29;1.17;;;1.07;;
12846;SDS011;6492;48.128;8.320;2024-01-30T05:50:30;1.13;;;1.10;;
12846;SDS011;6492;48.128;8.320;2024-01-30T05:54:33;1.20;;;1.10;;
12846;SDS011;6492;48.128;8.320;2024-01-30T05:58:35;1.70;;;1.30;;
12846;SDS011;6492;48.128;8.320;2024-01-30T06:02:38;1.70;;;1.30;;
12846;SDS011;6492;48.128;8.320;2024-01-30T06:06:40;1.57;;;1.00;;
12846;SDS011;6492;48.128;8.320;2024-01-30T06:10:43;2.50;;;1.30;;
12846;SDS011;6492;48.128;8.320;2024-01-30T06:14:45;1.50;;;1.40;;
12846;SDS011;6492;48.128;8.320;2024-01-30T06:18:48;2.10;;;1.47;;
12846;SDS011;6492;48.128;8.320;2024-01-30T06:22:50;1.70;;;1.27;;
12846;SDS011;6492;48.128;8.320;2024-01-30T06:26:55;1.20;;;1.10;;
12846;SDS011;6492;48.128;8.320;2024-01-30T06:30:56;1.07;;;0.97;;
12846;SDS011;6492;48.128;8.320;2024-01-30T06:34:58;1.33;;;1.17;;
12846;SDS011;6492;48.128;8.320;2024-01-30T06:39:00;1.57;;;1.30;;
12846;SDS011;6492;48.128;8.320;2024-01-30T06:43:04;1.30;;;1.20;;
12846;SDS011;6492;48.128;8.320;2024-01-30T06:47:06;2.30;;;1.40;;
12846;SDS011;6492;48.128;8.320;2024-01-30T06:51:07;1.43;;;1.33;;
12846;SDS011;6492;48.128;8.320;2024-01-30T06:55:09;2.17;;;1.47;;
12846;SDS011;6492;48.128;8.320;2024-01-30T06:59:12;1.40;;;1.30;;
12846;SDS011;6492;48.128;8.320;2024-01-30T07:03:20;2.97;;;1.60;;
12846;SDS011;6492;48.128;8.320;2024-01-30T07:07:22;1.80;;;1.50;;
12846;SDS011;6492;48.128;8.320;2024-01-30T07:11:24;1.70;;;1.60;;
12846;SDS011;6492;48.128;8.320;2024-01-30T07:15:28;2.90;;;1.90;;
12846;SDS011;6492;48.128;8.320;2024-01-30T07:19:29;1.97;;;1.80;;
12846;SDS011;6492;48.128;8.320;2024-01-30T07:23:33;2.20;;;2.00;;
12846;SDS011;6492;48.128;8.320;2024-01-30T07:27:35;2.53;;;2.20;;
12846;SDS011;6492;48.128;8.320;2024-01-30T07:31:38;5.83;;;1.87;;
12846;SDS011;6492;48.128;8.320;2024-01-30T07:35:40;2.17;;;1.93;;
12846;SDS011;6492;48.128;8.320;2024-01-30T07:39:42;3.10;;;2.47;;
12846;SDS011;6492;48.128;8.320;2024-01-30T07:43:44;2.20;;;1.80;;
12846;SDS011;6492;48.128;8.320;2024-01-30T07:47:54;2.40;;;1.90;;
12846;SDS011;6492;48.128;8.320;2024-01-30T07:51:56;3.30;;;1.87;;
12846;SDS011;6492;48.128;8.320;2024-01-30T07:55:57;2.60;;;2.13;;
12846;SDS011;6492;48.128;8.320;2024-01-30T08:00:04;2.63;;;2.10;;
12846;SDS011;6492;48.128;8.320;2024-01-30T08:04:08;2.93;;;2.33;;
12846;SDS011;6492;48.128;8.320;2024-01-30T08:08:10;2.83;;;1.93;;
12846;SDS011;6492;48.128;8.320;2024-01-30T08:12:19;2.60;;;2.40;;
12846;SDS011;6492;48.128;8.320;2024-01-30T08:16:21;2.13;;;1.93;;
12846;SDS011;6492;48.128;8.320;2024-01-30T08:24:34;1.70;;;1.60;;
12846;SDS011;6492;48.128;8.320;2024-01-30T08:28:42;2.30;;;1.60;;
12846;SDS011;6492;48.128;8.320;2024-01-30T08:32:44;1.63;;;1.50;;
12846;SDS011;6492;48.128;8.320;2024-01-30T08:36:47;2.33;;;2.00;;
12846;SDS011;6492;48.128;8.320;2024-01-30T08:40:51;2.23;;;1.70;;
12846;SDS011;6492;48.128;8.320;2024-01-30T08:45:02;2.00;;;1.73;;
12846;SDS011;6492;48.128;8.320;2024-01-30T08:49:05;2.00;;;1.60;;
12846;SDS011;6492;48.128;8.320;2024-01-30T08:53:09;1.67;;;1.57;;
12846;SDS011;6492;48.128;8.320;2024-01-30T08:57:11;1.87;;;1.63;;
12846;SDS011;6492;48.128;8.320;2024-01-30T09:01:13;2.33;;;1.60;;
12846;SDS011;6492;48.128;8.320;2024-01-30T09:05:15;1.97;;;1.60;;
12846;SDS011;6492;48.128;8.320;2024-01-30T09:09:18;2.07;;;1.80;;
12846;SDS011;6492;48.128;8.320;2024-01-30T09:13:20;2.43;;;1.60;;
12846;SDS011;6492;48.128;8.320;2024-01-30T09:17:22;2.63;;;2.23;;
12846;SDS011;6492;48.128;8.320;2024-01-30T09:25:30;2.40;;;1.80;;
12846;SDS011;6492;48.128;8.320;2024-01-30T09:29:32;2.33;;;1.67;;
12846;SDS011;6492;48.128;8.320;2024-01-30T09:33:34;1.70;;;1.60;;
12846;SDS011;6492;48.128;8.320;2024-01-30T09:37:36;1.97;;;1.57;;
12846;SDS011;6492;48.128;8.320;2024-01-30T09:41:40;1.63;;;1.47;;
12846;SDS011;6492;48.128;8.320;2024-01-30T09:45:47;1.57;;;1.47;;
12846;SDS011;6492;48.128;8.320;2024-01-30T09:49:53;1.70;;;1.40;;
12846;SDS011;6492;48.128;8.320;2024-01-30T09:53:56;1.50;;;1.30;;
12846;SDS011;6492;48.128;8.320;2024-01-30T09:57:59;3.10;;;1.50;;
12846;SDS011;6492;48.128;8.320;2024-01-30T10:02:01;2.13;;;1.30;;
12846;SDS011;6492;48.128;8.320;2024-01-30T10:06:04;1.40;;;1.30;;
12846;SDS011;6492;48.128;8.320;2024-01-30T10:10:07;1.90;;;1.43;;
12846;SDS011;6492;48.128;8.320;2024-01-30T10:14:10;1.73;;;1.53;;
12846;SDS011;6492;48.128;8.320;2024-01-30T10:18:12;1.73;;;1.63;;
12846;SDS011;6492;48.128;8.320;2024-01-30T10:22:14;1.63;;;1.37;;
12846;SDS011;6492;48.128;8.320;2024-01-30T10:26:16;21.97;;;9.27;;
12846;SDS011;6492;48.128;8.320;2024-01-30T10:30:19;1.87;;;1.77;;
12846;SDS011;6492;48.128;8.320;2024-01-30T10:34:21;2.40;;;1.90;;
12846;SDS011;6492;48.128;8.320;2024-01-30T10:38:23;2.20;;;1.80;;
12846;SDS011;6492;48.128;8.320;2024-01-30T10:42:28;2.47;;;1.67;;
12846;SDS011;6492;48.128;8.320;2024-01-30T10:46:34;2.13;;;1.50;;
12846;SDS011;6492;48.128;8.320;2024-01-30T10:50:38;1.60;;;1.50;;
12846;SDS011;6492;48.128;8.320;2024-01-30T10:54:43;1.77;;;1.67;;
12846;SDS011;6492;48.128;8.320;2024-01-30T10:58:46;2.00;;;1.70;;
12846;SDS011;6492;48.128;8.320;2024-01-30T11:02:50;2.33;;;1.50;;
12846;SDS011;6492;48.128;8.320;2024-01-30T11:06:52;1.47;;;1.33;;
12846;SDS011;6492;48.128;8.320;2024-01-30T11:10:55;3.30;;;1.50;;
12846;SDS011;6492;48.128;8.320;2024-01-30T11:15:01;1.80;;;1.70;;
12846;SDS011;6492;48.128;8.320;2024-01-30T11:19:07;2.10;;;1.63;;
12846;SDS011;6492;48.128;8.320;2024-01-30T11:23:12;2.20;;;1.77;;
12846;SDS011;6492;48.128;8.320;2024-01-30T11:27:13;1.73;;;1.40;;
12846;SDS011;6492;48.128;8.320;2024-01-30T11:31:18;1.80;;;1.50;;
12846;SDS011;6492;48.128;8.320;2024-01-30T11:35:21;2.77;;;1.57;;
12846;SDS011;6492;48.128;8.320;2024-01-30T11:39:24;1.63;;;1.53;;
12846;SDS011;6492;48.128;8.320;2024-01-30T11:43:26;1.70;;;1.33;;
12846;SDS011;6492;48.128;8.320;2024-01-30T11:47:28;2.07;;;1.60;;
12846;SDS011;6492;48.128;8.320;2024-01-30T11:51:31;2.17;;;1.80;;
12846;SDS011;6492;48.128;8.320;2024-01-30T11:55:33;1.57;;;1.37;;
12846;SDS011;6492;48.128;8.320;2024-01-30T11:59:36;2.47;;;1.80;;
12846;SDS011;6492;48.128;8.320;2024-01-30T12:03:38;2.37;;;1.83;;
12846;SDS011;6492;48.128;8.320;2024-01-30T12:07:43;3.03;;;1.93;;
12846;SDS011;6492;48.128;8.320;2024-01-30T12:11:45;2.27;;;1.70;;
12846;SDS011;6492;48.128;8.320;2024-01-30T12:15:48;1.97;;;1.80;;
12846;SDS011;6492;48.128;8.320;2024-01-30T12:19:50;2.87;;;1.90;;
12846;SDS011;6492;48.128;8.320;2024-01-30T12:23:56;2.00;;;1.77;;
12846;SDS011;6492;48.128;8.320;2024-01-30T12:27:57;1.97;;;1.77;;
12846;SDS011;6492;48.128;8.320;2024-01-30T12:31:59;2.27;;;1.90;;
12846;SDS011;6492;48.128;8.320;2024-01-30T12:36:01;3.03;;;1.97;;
12846;SDS011;6492;48.128;8.320;2024-01-30T12:40:05;2.80;;;1.90;;
12846;SDS011;6492;48.128;8.320;2024-01-30T12:44:09;2.90;;;1.63;;
12846;SDS011;6492;48.128;8.320;2024-01-30T12:48:11;1.97;;;1.77;;
12846;SDS011;6492;48.128;8.320;2024-01-30T12:52:13;2.30;;;2.10;;
12846;SDS011;6492;48.128;8.320;2024-01-30T12:56:16;1.87;;;1.77;;
12846;SDS011;6492;48.128;8.320;2024-01-30T13:00:18;3.30;;;2.00;;
12846;SDS011;6492;48.128;8.320;2024-01-30T13:04:20;3.60;;;2.13;;
12846;SDS011;6492;48.128;8.320;2024-01-30T13:08:23;2.47;;;2.00;;
12846;SDS011;6492;48.128;8.320;2024-01-30T13:12:26;2.37;;;2.00;;
12846;SDS011;6492;48.128;8.320;2024-01-30T13:16:28;2.93;;;2.10;;
12846;SDS011;6492;48.128;8.320;2024-01-30T13:20:30;2.50;;;2.30;;
12846;SDS011;6492;48.128;8.320;2024-01-30T13:24:32;3.00;;;2.47;;
12846;SDS011;6492;48.128;8.320;2024-01-30T13:28:35;3.00;;;2.20;;
12846;SDS011;6492;48.128;8.320;2024-01-30T13:32:37;2.43;;;2.00;;
12846;SDS011;6492;48.128;8.320;2024-01-30T13:36:48;3.70;;;2.20;;
12846;SDS011;6492;48.128;8.320;2024-01-30T13:40:50;3.47;;;2.50;;
12846;SDS011;6492;48.128;8.320;2024-01-30T13:44:53;2.40;;;2.20;;
12846;SDS011;6492;48.128;8.320;2024-01-30T13:48:55;4.03;;;2.57;;
12846;SDS011;6492;48.128;8.320;2024-01-30T13:52:57;2.80;;;2.20;;
12846;SDS011;6492;48.128;8.320;2024-01-30T13:56:59;5.33;;;2.47;;
12846;SDS011;6492;48.128;8.320;2024-01-30T14:01:02;3.80;;;2.60;;
12846;SDS011;6492;48.128;8.320;2024-01-30T14:05:05;2.87;;;2.30;;
12846;SDS011;6492;48.128;8.320;2024-01-30T14:09:07;3.17;;;2.60;;
12846;SDS011;6492;48.128;8.320;2024-01-30T14:13:10;3.43;;;2.20;;
12846;SDS011;6492;48.128;8.320;2024-01-30T14:17:14;2.20;;;2.00;;
12846;SDS011;6492;48.128;8.320;2024-01-30T14:21:15;2.30;;;2.10;;
12846;SDS011;6492;48.128;8.320;2024-01-30T14:25:17;4.13;;;2.10;;
12846;SDS011;6492;48.128;8.320;2024-01-30T14:29:19;2.53;;;2.13;;
12846;SDS011;6492;48.128;8.320;2024-01-30T14:33:22;3.10;;;2.10;;
12846;SDS011;6492;48.128;8.320;2024-01-30T14:37:24;3.37;;;2.13;;
12846;SDS011;6492;48.128;8.320;2024-01-30T14:41:29;3.63;;;2.40;;
12846;SDS011;6492;48.128;8.320;2024-01-30T14:45:31;3.77;;;2.40;;
12846;SDS011;6492;48.128;8.320;2024-01-30T14:49:34;3.87;;;2.50;;
12846;SDS011;6492;48.128;8.320;2024-01-30T14:53:36;4.13;;;2.40;;
12846;SDS011;6492;48.128;8.320;2024-01-30T14:57:38;3.30;;;2.30;;
12846;SDS011;6492;48.128;8.320;2024-01-30T15:01:42;2.60;;;2.37;;
12846;SDS011;6492;48.128;8.320;2024-01-30T15:05:46;4.20;;;2.57;;
12846;SDS011;6492;48.128;8.320;2024-01-30T15:09:48;3.63;;;2.40;;
12846;SDS011;6492;48.128;8.320;2024-01-30T15:13:50;2.87;;;2.47;;
12846;SDS011;6492;48.128;8.320;2024-01-30T15:17:51;3.23;;;2.20;;
12846;SDS011;6492;48.128;8.320;2024-01-30T15:21:55;4.57;;;2.40;;
12846;SDS011;6492;48.128;8.320;2024-01-30T15:30:13;5.03;;;2.43;;
12846;SDS011;6492;48.128;8.320;2024-01-30T15:34:21;4.80;;;2.83;;
12846;SDS011;6492;48.128;8.320;2024-01-30T15:38:24;3.43;;;2.50;;
12846;SDS011;6492;48.128;8.320;2024-01-30T15:42:37;4.50;;;3.30;;
12846;SDS011;6492;48.128;8.320;2024-01-30T15:46:39;3.00;;;2.40;;
12846;SDS011;6492;48.128;8.320;2024-01-30T15:50:41;3.07;;;2.80;;
12846;SDS011;6492;48.128;8.320;2024-01-30T15:54:44;3.40;;;2.70;;
12846;SDS011;6492;48.128;8.320;2024-01-30T15:58:47;7.60;;;5.67;;
12846;SDS011;6492;48.128;8.320;2024-01-30T16:02:49;3.70;;;2.70;;
12846;SDS011;6492;48.128;8.320;2024-01-30T16:06:51;3.37;;;2.50;;
12846;SDS011;6492;48.128;8.320;2024-01-30T16:10:54;2.57;;;2.20;;
12846;SDS011;6492;48.128;8.320;2024-01-30T16:14:56;4.77;;;3.10;;
12846;SDS011;6492;48.128;8.320;2024-01-30T16:18:59;3.60;;;2.60;;
12846;SDS011;6492;48.128;8.320;2024-01-30T16:23:01;6.90;;;6.10;;
12846;SDS011;6492;48.128;8.320;2024-01-30T16:27:05;7.23;;;5.60;;
12846;SDS011;6492;48.128;8.320;2024-01-30T16:31:07;4.50;;;3.17;;
12846;SDS011;6492;48.128;8.320;2024-01-30T16:35:09;4.30;;;3.73;;
12846;SDS011;6492;48.128;8.320;2024-01-30T16:39:11;5.23;;;3.40;;
12846;SDS011;6492;48.128;8.320;2024-01-30T16:43:14;4.80;;;4.07;;
12846;SDS011;6492;48.128;8.320;2024-01-30T16:47:16;4.60;;;3.33;;
12846;SDS011;6492;48.128;8.320;2024-01-30T16:51:17;3.57;;;2.90;;
12846;SDS011;6492;48.128;8.320;2024-01-30T16:55:19;7.60;;;5.37;;
12846;SDS011;6492;48.128;8.320;2024-01-30T16:59:23;4.10;;;3.70;;
12846;SDS011;6492;48.128;8.320;2024-01-30T17:03:25;3.70;;;3.20;;
12846;SDS011;6492;48.128;8.320;2024-01-30T17:07:27;3.47;;;3.03;;
12846;SDS011;6492;48.128;8.320;2024-01-30T17:11:34;4.63;;;3.40;;
12846;SDS011;6492;48.128;8.320;2024-01-30T17:15:37;4.23;;;2.90;;
12846;SDS011;6492;48.128;8.320;2024-01-30T17:19:41;3.00;;;2.60;;
12846;SDS011;6492;48.128;8.320;2024-01-30T17:23:45;2.90;;;2.60;;
12846;SDS011;6492;48.128;8.320;2024-01-30T17:27:47;2.97;;;2.67;;
12846;SDS011;6492;48.128;8.320;2024-01-30T17:31:51;3.37;;;2.63;;
12846;SDS011;6492;48.128;8.320;2024-01-30T17:36:05;2.93;;;2.63;;
12846;SDS011;6492;48.128;8.320;2024-01-30T17:40:07;4.13;;;3.13;;
12846;SDS011;6492;48.128;8.320;2024-01-30T17:44:11;4.13;;;3.37;;
12846;SDS011;6492;48.128;8.320;2024-01-30T17:48:14;5.20;;;4.67;;
12846;SDS011;6492;48.128;8.320;2024-01-30T17:52:17;5.63;;;3.97;;
12846;SDS011;6492;48.128;8.320;2024-01-30T17:56:19;5.43;;;3.87;;
12846;SDS011;6492;48.128;8.320;2024-01-30T18:00:22;3.90;;;3.50;;
12846;SDS011;6492;48.128;8.320;2024-01-30T18:04:26;3.20;;;2.80;;
12846;SDS011;6492;48.128;8.320;2024-01-30T18:08:28;4.47;;;3.30;;
12846;SDS011;6492;48.128;8.320;2024-01-30T18:12:30;3.87;;;3.10;;
12846;SDS011;6492;48.128;8.320;2024-01-30T18:16:31;4.77;;;3.10;;
12846;SDS011;6492;48.128;8.320;2024-01-30T18:20:35;4.93;;;2.90;;
12846;SDS011;6492;48.128;8.320;2024-01-30T18:24:36;4.73;;;3.80;;
12846;SDS011;6492;48.128;8.320;2024-01-30T18:28:47;4.67;;;3.80;;
12846;SDS011;6492;48.128;8.320;2024-01-30T18:32:48;5.67;;;4.20;;
12846;SDS011;6492;48.128;8.320;2024-01-30T18:36:53;4.30;;;3.70;;
12846;SDS011;6492;48.128;8.320;2024-01-30T18:40:57;4.93;;;4.23;;
12846;SDS011;6492;48.128;8.320;2024-01-30T18:49:18;3.77;;;3.30;;
12846;SDS011;6492;48.128;8.320;2024-01-30T18:53:28;5.60;;;4.43;;
12846;SDS011;6492;48.128;8.320;2024-01-30T18:57:30;4.53;;;3.87;;
12846;SDS011;6492;48.128;8.320;2024-01-30T19:01:33;4.97;;;3.87;;
12846;SDS011;6492;48.128;8.320;2024-01-30T19:05:35;5.47;;;3.90;;
12846;SDS011;6492;48.128;8.320;2024-01-30T19:09:39;6.73;;;4.93;;
12846;SDS011;6492;48.128;8.320;2024-01-30T19:13:40;5.07;;;4.03;;
12846;SDS011;6492;48.128;8.320;2024-01-30T19:17:50;4.20;;;3.60;;
12846;SDS011;6492;48.128;8.320;2024-01-30T19:21:52;5.13;;;4.63;;
12846;SDS011;6492;48.128;8.320;2024-01-30T19:25:55;10.77;;;8.33;;
12846;SDS011;6492;48.128;8.320;2024-01-30T19:30:05;5.57;;;4.63;;
12846;SDS011;6492;48.128;8.320;2024-01-30T19:34:08;11.30;;;7.07;;
12846;SDS011;6492;48.128;8.320;2024-01-30T19:38:23;5.97;;;3.67;;
12846;SDS011;6492;48.128;8.320;2024-01-30T19:42:26;3.93;;;3.23;;
12846;SDS011;6492;48.128;8.320;2024-01-30T19:46:28;4.83;;;4.00;;
12846;SDS011;6492;48.128;8.320;2024-01-30T19:50:39;3.87;;;3.40;;
12846;SDS011;6492;48.128;8.320;2024-01-30T19:54:41;5.00;;;3.57;;
12846;SDS011;6492;48.128;8.320;2024-01-30T19:58:44;6.00;;;4.20;;
12846;SDS011;6492;48.128;8.320;2024-01-30T20:02:46;5.13;;;4.17;;
12846;SDS011;6492;48.128;8.320;2024-01-30T20:06:48;8.10;;;5.60;;
12846;SDS011;6492;48.128;8.320;2024-01-30T20:14:56;8.43;;;6.77;;
12846;SDS011;6492;48.128;8.320;2024-01-30T20:19:00;6.20;;;4.63;;
12846;SDS011;6492;48.128;8.320;2024-01-30T20:23:02;6.27;;;4.60;;
12846;SDS011;6492;48.128;8.320;2024-01-30T20:27:04;4.70;;;3.53;;
12846;SDS011;6492;48.128;8.320;2024-01-30T20:31:08;6.17;;;3.50;;
12846;SDS011;6492;48.128;8.320;2024-01-30T20:35:13;3.37;;;3.07;;
12846;SDS011;6492;48.128;8.320;2024-01-30T20:39:15;4.00;;;2.93;;
12846;SDS011;6492;48.128;8.320;2024-01-30T20:43:17;3.40;;;3.03;;
12846;SDS011;6492;48.128;8.320;2024-01-30T20:47:20;4.60;;;3.30;;
12846;SDS011;6492;48.128;8.320;2024-01-30T20:51:22;3.67;;;2.93;;
12846;SDS011;6492;48.128;8.320;2024-01-30T20:55:24;3.57;;;2.80;;
12846;SDS011;6492;48.128;8.320;2024-01-30T20:59:26;4.30;;;2.87;;
12846;SDS011;6492;48.128;8.320;2024-01-30T21:03:30;4.13;;;3.30;;
12846;SDS011;6492;48.128;8.320;2024-01-30T21:07:31;4.37;;;2.60;;
12846;SDS011;6492;48.128;8.320;2024-01-30T21:11:33;3.23;;;2.93;;
12846;SDS011;6492;48.128;8.320;2024-01-30T21:15:35;2.73;;;2.30;;
12846;SDS011;6492;48.128;8.320;2024-01-30T21:19:38;4.33;;;2.83;;
12846;SDS011;6492;48.128;8.320;2024-01-30T21:23:41;3.50;;;2.47;;
12846;SDS011;6492;48.128;8.320;2024-01-30T21:27:44;4.47;;;3.40;;
12846;SDS011;6492;48.128;8.320;2024-01-30T21:31:45;5.60;;;3.20;;
12846;SDS011;6492;48.128;8.320;2024-01-30T21:35:50;3.83;;;2.97;;
12846;SDS011;6492;48.128;8.320;2024-01-30T21:39:52;3.13;;;2.57;;
12846;SDS011;6492;48.128;8.320;2024-01-30T21:43:55;4.13;;;2.83;;
12846;SDS011;6492;48.128;8.320;2024-01-30T21:47:57;3.00;;;2.70;;
12846;SDS011;6492;48.128;8.320;2024-01-30T21:52:06;3.97;;;2.60;;
12846;SDS011;6492;48.128;8.320;2024-01-30T21:56:08;2.97;;;2.67;;
12846;SDS011;6492;48.128;8.320;2024-01-30T22:00:10;3.13;;;2.83;;
12846;SDS011;6492;48.128;8.320;2024-01-30T22:04:25;3.53;;;3.07;;
12846;SDS011;6492;48.128;8.320;2024-01-30T22:08:29;4.23;;;2.60;;
12846;SDS011;6492;48.128;8.320;2024-01-30T22:12:30;3.30;;;2.70;;
12846;SDS011;6492;48.128;8.320;2024-01-30T22:16:32;5.00;;;3.23;;
12846;SDS011;6492;48.128;8.320;2024-01-30T22:20:34;3.57;;;2.80;;
12846;SDS011;6492;48.128;8.320;2024-01-30T22:24:37;4.13;;;3.10;;
12846;SDS011;6492;48.128;8.320;2024-01-30T22:28:39;4.87;;;3.50;;
12846;SDS011;6492;48.128;8.320;2024-01-30T22:32:47;4.13;;;3.00;;
12846;SDS011;6492;48.128;8.320;2024-01-30T22:36:49;4.27;;;3.40;;
12846;SDS011;6492;48.128;8.320;2024-01-30T22:40:52;5.03;;;3.13;;
12846;SDS011;6492;48.128;8.320;2024-01-30T22:44:54;4.93;;;3.10;;
12846;SDS011;6492;48.128;8.320;2024-01-30T22:48:56;4.00;;;3.47;;
12846;SDS011;6492;48.128;8.320;2024-01-30T22:52:57;4.90;;;3.50;;
12846;SDS011;6492;48.128;8.320;2024-01-30T22:57:01;3.23;;;2.93;;
12846;SDS011;6492;48.128;8.320;2024-01-30T23:01:03;4.27;;;3.37;;
12846;SDS011;6492;48.128;8.320;2024-01-30T23:05:07;3.67;;;3.10;;
12846;SDS011;6492;48.128;8.320;2024-01-30T23:09:09;4.47;;;3.60;;
12846;SDS011;6492;48.128;8.320;2024-01-30T23:13:15;4.73;;;3.17;;
12846;SDS011;6492;48.128;8.320;2024-01-30T23:17:17;4.60;;;3.00;;
12846;SDS011;6492;48.128;8.320;2024-01-30T23:21:20;3.40;;;2.90;;
12846;SDS011;6492;48.128;8.320;2024-01-30T23:25:21;5.17;;;3.33;;
12846;SDS011;6492;48.128;8.320;2024-01-30T23:29:24;5.00;;;3.63;;
12846;SDS011;6492;48.128;8.320;2024-01-30T23:33:26;4.33;;;3.43;;
12846;SDS011;6492;48.128;8.320;2024-01-30T23:37:28;6.20;;;3.80;;
12846;SDS011;6492;48.128;8.320;2024-01-30T23:41:30;4.00;;;3.17;;
12846;SDS011;6492;48.128;8.320;2024-01-30T23:49:58;4.63;;;3.23;;
12846;SDS011;6492;48.128;8.320;2024-01-30T23:54:00;3.63;;;3.33;;
12846;SDS011;6492;48.128;8.320;2024-01-30T23:58:02;5.27;;;3.20;;
